sensor_id;sensor_type;location;lat;lon;timestamp;pressure;altitude;pressure_sealevel;temperature;humidity
8253;BME280;61313;48.396;10.008;2023-06-26T19:19:18;96291.06;;;25.55;31.92
8253;BME280;61313;48.396;10.008;2023-06-26T19:21:43;96295.44;;;25.56;31.52
8253;BME280;61313;48.396;10.008;2023-06-26T19:24:09;96302.84;;;25.63;31.07
8253;BME280;61313;48.396;10.008;2023-06-26T19:26:34;96319.78;;;25.55;31.66
8253;BME280;61313;48.396;10.008;2023-06-26T19:29:01;96326.31;;;25.52;31.11
8253;BME280;61313;48.396;10.008;2023-06-26T19:31:26;96335.94;;;25.63;30.94
8253;BME280;61313;48.396;10.008;2023-06-26T19:33:52;96338.09;;;25.51;31.47
8253;BME280;61313;48.396;10.008;2023-06-26T19:36:18;96339.88;;;25.43;31.06
8253;BME280;61313;48.396;10.008;2023-06-26T19:38:45;96342.94;;;25.48;31.56
8253;BME280;61313;48.396;10.008;2023-06-26T19:41:11;96350.31;;;25.46;31.30
8253;BME280;61313;48.396;10.008;2023-06-26T19:43:36;96347.94;;;25.43;30.11
8253;BME280;61313;48.396;10.008;2023-06-26T19:46:01;96357.19;;;25.40;30.73
8253;BME280;61313;48.396;10.008;2023-06-26T19:48:27;96357.25;;;25.22;30.78
8253;BME280;61313;48.396;10.008;2023-06-26T19:50:52;96358.41;;;25.20;31.10
8253;BME280;61313;48.396;10.008;2023-06-26T19:53:18;96358.16;;;25.13;30.98
8253;BME280;61313;48.396;10.008;2023-06-26T19:55:43;96373.53;;;25.21;30.89
8253;BME280;61313;48.396;10.008;2023-06-26T19:58:08;96373.75;;;25.09;30.84
8253;BME280;61313;48.396;10.008;2023-06-26T20:00:34;96380.75;;;25.02;30.91
8253;BME280;61313;48.396;10.008;2023-06-26T20:03:03;96379.47;;;25.06;30.84
8253;BME280;61313;48.396;10.008;2023-06-26T20:05:28;96383.75;;;24.99;30.68
8253;BME280;61313;48.396;10.008;2023-06-26T20:07:53;96391.13;;;24.97;30.41
8253;BME280;61313;48.396;10.008;2023-06-26T20:10:19;96388.91;;;24.92;30.27
8253;BME280;61313;48.396;10.008;2023-06-26T20:12:44;96389.69;;;24.85;30.36
8253;BME280;61313;48.396;10.008;2023-06-26T20:15:10;96403.75;;;24.79;30.21
8253;BME280;61313;48.396;10.008;2023-06-26T20:17:35;96408.78;;;24.82;30.10
8253;BME280;61313;48.396;10.008;2023-06-26T20:20:01;96404.13;;;24.66;30.14
8253;BME280;61313;48.396;10.008;2023-06-26T20:22:26;96402.50;;;24.73;29.72
8253;BME280;61313;48.396;10.008;2023-06-26T20:24:51;96412.03;;;24.85;33.38
8253;BME280;61313;48.396;10.008;2023-06-26T20:27:17;96394.97;;;24.95;35.00
8253;BME280;61313;48.396;10.008;2023-06-26T20:29:42;96404.59;;;24.79;32.59
8253;BME280;61313;48.396;10.008;2023-06-26T20:32:08;96403.31;;;24.91;32.25
8253;BME280;61313;48.396;10.008;2023-06-26T20:34:34;96414.25;;;24.90;35.03
8253;BME280;61313;48.396;10.008;2023-06-26T20:36:59;96418.34;;;25.02;35.01
8253;BME280;61313;48.396;10.008;2023-06-26T20:39:24;96416.97;;;24.98;34.81
8253;BME280;61313;48.396;10.008;2023-06-26T20:41:53;96421.13;;;24.92;33.07
8253;BME280;61313;48.396;10.008;2023-06-26T20:44:19;96417.69;;;24.82;31.87
8253;BME280;61313;48.396;10.008;2023-06-26T20:46:45;96428.91;;;24.60;30.57
8253;BME280;61313;48.396;10.008;2023-06-26T20:49:20;96429.56;;;24.44;31.52
8253;BME280;61313;48.396;10.008;2023-06-26T20:51:45;96428.53;;;24.45;31.78
8253;BME280;61313;48.396;10.008;2023-06-26T20:54:11;96436.91;;;24.42;31.70
8253;BME280;61313;48.396;10.008;2023-06-26T20:56:36;96440.66;;;24.31;31.89
8253;BME280;61313;48.396;10.008;2023-06-26T20:59:02;96436.53;;;24.37;32.63
8253;BME280;61313;48.396;10.008;2023-06-26T21:01:27;96445.16;;;24.30;31.71
8253;BME280;61313;48.396;10.008;2023-06-26T21:03:53;96440.34;;;24.34;31.58
8253;BME280;61313;48.396;10.008;2023-06-26T21:06:18;96450.25;;;24.34;31.34
8253;BME280;61313;48.396;10.008;2023-06-26T21:08:43;96447.00;;;24.30;31.72
8253;BME280;61313;48.396;10.008;2023-06-26T21:11:09;96449.16;;;24.26;32.75
8253;BME280;61313;48.396;10.008;2023-06-26T21:13:34;96452.19;;;24.14;31.62
8253;BME280;61313;48.396;10.008;2023-06-26T21:16:00;96455.50;;;24.07;31.42
8253;BME280;61313;48.396;10.008;2023-06-26T21:18:25;96460.69;;;24.09;33.08
8253;BME280;61313;48.396;10.008;2023-06-26T21:20:50;96469.75;;;24.08;32.78
8253;BME280;61313;48.396;10.008;2023-06-26T21:23:16;96468.44;;;24.12;32.21
8253;BME280;61313;48.396;10.008;2023-06-26T21:25:41;96474.66;;;24.13;31.95
8253;BME280;61313;48.396;10.008;2023-06-26T21:28:06;96474.78;;;24.11;31.98
8253;BME280;61313;48.396;10.008;2023-06-26T21:30:32;96478.31;;;24.12;32.25
8253;BME280;61313;48.396;10.008;2023-06-26T21:32:57;96468.78;;;23.99;32.21
8253;BME280;61313;48.396;10.008;2023-06-26T21:35:23;96479.56;;;23.90;31.98
8253;BME280;61313;48.396;10.008;2023-06-26T21:37:48;96482.53;;;23.86;31.93
8253;BME280;61313;48.396;10.008;2023-06-26T21:40:13;96479.47;;;23.81;32.29
8253;BME280;61313;48.396;10.008;2023-06-26T21:42:39;96477.75;;;23.80;32.70
8253;BME280;61313;48.396;10.008;2023-06-26T21:45:05;96481.59;;;23.78;32.20
8253;BME280;61313;48.396;10.008;2023-06-26T21:47:30;96483.00;;;23.72;32.78
8253;BME280;61313;48.396;10.008;2023-06-26T21:49:55;96482.41;;;23.78;32.06
8253;BME280;61313;48.396;10.008;2023-06-26T21:52:21;96495.69;;;23.70;32.14
8253;BME280;61313;48.396;10.008;2023-06-26T21:54:46;96493.84;;;23.71;32.68
8253;BME280;61313;48.396;10.008;2023-06-26T21:57:12;96500.25;;;23.60;32.60
8253;BME280;61313;48.396;10.008;2023-06-26T21:59:37;96500.53;;;23.47;32.69
8253;BME280;61313;48.396;10.008;2023-06-26T22:02:03;96496.44;;;23.53;32.45
8253;BME280;61313;48.396;10.008;2023-06-26T22:04:28;96508.28;;;23.50;33.26
8253;BME280;61313;48.396;10.008;2023-06-26T22:06:54;96502.78;;;23.52;33.02
8253;BME280;61313;48.396;10.008;2023-06-26T22:09:19;96506.47;;;23.51;33.31
8253;BME280;61313;48.396;10.008;2023-06-26T22:11:44;96511.97;;;23.49;33.91
8253;BME280;61313;48.396;10.008;2023-06-26T22:14:10;96506.19;;;23.44;33.39
8253;BME280;61313;48.396;10.008;2023-06-26T22:16:35;96494.22;;;23.38;33.68
8253;BME280;61313;48.396;10.008;2023-06-26T22:19:00;96501.56;;;23.36;33.60
8253;BME280;61313;48.396;10.008;2023-06-26T22:21:26;96499.81;;;23.55;34.04
8253;BME280;61313;48.396;10.008;2023-06-26T22:23:51;96490.25;;;23.42;33.30
8253;BME280;61313;48.396;10.008;2023-06-26T22:26:17;96499.44;;;23.40;33.71
8253;BME280;61313;48.396;10.008;2023-06-26T22:28:42;96493.81;;;23.23;34.33
8253;BME280;61313;48.396;10.008;2023-06-26T22:31:08;96497.09;;;23.17;34.29
8253;BME280;61313;48.396;10.008;2023-06-26T22:33:33;96496.63;;;23.41;33.91
8253;BME280;61313;48.396;10.008;2023-06-26T22:35:58;96496.22;;;23.17;34.01
8253;BME280;61313;48.396;10.008;2023-06-26T22:38:24;96498.47;;;23.31;35.00
8253;BME280;61313;48.396;10.008;2023-06-26T22:40:50;96499.31;;;23.32;34.25
8253;BME280;61313;48.396;10.008;2023-06-26T22:43:15;96499.06;;;23.25;34.48
8253;BME280;61313;48.396;10.008;2023-06-26T22:45:41;96503.69;;;23.33;34.27
8253;BME280;61313;48.396;10.008;2023-06-26T22:48:06;96506.22;;;23.34;34.75
8253;BME280;61313;48.396;10.008;2023-06-26T22:50:31;96501.31;;;23.10;34.68
8253;BME280;61313;48.396;10.008;2023-06-26T22:52:58;96502.72;;;23.14;35.48
8253;BME280;61313;48.396;10.008;2023-06-26T22:55:24;96490.75;;;23.18;34.38
8253;BME280;61313;48.396;10.008;2023-06-26T22:57:50;96503.44;;;23.07;35.12
8253;BME280;61313;48.396;10.008;2023-06-26T23:00:15;96501.47;;;23.09;35.30
8253;BME280;61313;48.396;10.008;2023-06-26T23:02:43;96502.59;;;23.06;35.88
8253;BME280;61313;48.396;10.008;2023-06-26T23:05:09;96504.56;;;23.04;34.97
8253;BME280;61313;48.396;10.008;2023-06-26T23:07:34;96499.63;;;22.90;35.35
8253;BME280;61313;48.396;10.008;2023-06-26T23:10:05;96503.00;;;22.82;35.54
8253;BME280;61313;48.396;10.008;2023-06-26T23:12:31;96502.84;;;22.74;35.68
8253;BME280;61313;48.396;10.008;2023-06-26T23:14:58;96507.19;;;22.65;35.97
8253;BME280;61313;48.396;10.008;2023-06-26T23:17:24;96496.06;;;22.70;36.20
8253;BME280;61313;48.396;10.008;2023-06-26T23:19:49;96505.09;;;22.78;35.62
8253;BME280;61313;48.396;10.008;2023-06-26T23:22:16;96504.56;;;22.75;35.83
8253;BME280;61313;48.396;10.008;2023-06-26T23:24:45;96499.16;;;22.65;36.32
8253;BME280;61313;48.396;10.008;2023-06-26T23:27:10;96502.13;;;22.62;36.32
8253;BME280;61313;48.396;10.008;2023-06-26T23:29:37;96505.22;;;22.57;36.42
8253;BME280;61313;48.396;10.008;2023-06-26T23:32:04;96507.59;;;22.60;36.36
8253;BME280;61313;48.396;10.008;2023-06-26T23:34:30;96514.25;;;22.56;36.36
8253;BME280;61313;48.396;10.008;2023-06-26T23:36:55;96512.53;;;22.55;36.09
8253;BME280;61313;48.396;10.008;2023-06-26T23:39:20;96513.53;;;22.64;36.06
8253;BME280;61313;48.396;10.008;2023-06-26T23:41:48;96508.19;;;22.64;35.91
8253;BME280;61313;48.396;10.008;2023-06-26T23:44:15;96512.13;;;22.50;36.13
8253;BME280;61313;48.396;10.008;2023-06-26T23:46:47;96511.97;;;22.42;36.43
8253;BME280;61313;48.396;10.008;2023-06-26T23:49:13;96523.19;;;22.36;36.73
8253;BME280;61313;48.396;10.008;2023-06-26T23:51:38;96514.16;;;22.27;36.91
8253;BME280;61313;48.396;10.008;2023-06-26T23:54:04;96527.31;;;22.40;36.67
8253;BME280;61313;48.396;10.008;2023-06-26T23:56:30;96522.50;;;22.34;36.38
8253;BME280;61313;48.396;10.008;2023-06-26T23:58:56;96521.91;;;22.21;36.91
